首页
METAR-TAF:

METAR-TAF

机场 :

東密德蘭機場

東米德蘭, 英格兰

纬度: 52-50N, 经度: 001-20W, 海拔: 94米

当前天气观测

该预报发布于40分钟前的09:50 UTC
风速10节,风向,在西北东北之间变化
温度 6°C
湿度 75%
气压 1036 hPa
能见度10公里或以上
多云层高于2100英尺

METAR: EGNX 300950Z 01010KT 320V050 9999 BKN021 06/02 Q1036

时间: 11:30 (10:30 UTC)

预报

该预报发布于5小时和37分钟前的04:53 UTC
预报有效从30日的 06点(UTC)到 31日的 06点(UTC)
风速5节,风向西转西北
能见度10公里或以上
散云层高于4000英尺
几率 30% :
短暂存在
从 30日的 06点(UTC)到 30日的 22点(UTC)
能見度: 7000
多云层高于1200英尺
阵雨
成为
从 30日的 09点(UTC)到 30日的 12点(UTC)
风速12节,风向北转东北

TAF: EGNX 300453Z 3006/3106 30005KT 9999 SCT040 PROB30 TEMPO 3006/3022 7000 SHRA BKN012 BECMG 3009/3012 03012KT

超过4000个机场的气象观测和天气预报(METAR&TAF报告)。

可查询的气象台以黄色和红色小点在地图上表示。

将鼠标移到小点上方,可查看气象台名称。

然后点击查看天气观测和预报。

如需切换地图:点击带黑十字的绿色按钮放大地图;点击带横线的绿色按钮缩小地图;或者点击绿色箭头查看邻近地区的地图。


METAR-TAF: